Time;durP1;ratioP1;P1;durP2;ratioP2;P2;SDS_P1;SDS_P2;PMS_P1;PMS_P2;Temp;Humidity;BMP_temperature;BMP_pressure;BME280_temperature;BME280_humidity;BME280_pressure;Samples;Min_cycle;Max_cycle;Signal;HPM_P1;HPM_P2
2022/04/10 00:00:43;;;;;;;5.17;2.73;;;;;;;1.72;100.00;95951.75;5031832;28;24442;-73
2022/04/10 00:03:10;;;;;;;3.75;2.55;;;;;;;1.72;100.00;95947.47;5032045;28;24940;-74
2022/04/10 00:05:38;;;;;;;6.22;3.00;;;;;;;1.77;100.00;95952.47;5031863;28;24657;-74
2022/04/10 00:08:05;;;;;;;5.95;2.92;;;;;;;1.78;100.00;95951.56;5031769;28;24984;-73
2022/04/10 00:10:32;;;;;;;4.68;3.15;;;;;;;1.82;100.00;95950.66;5031548;28;24427;-74
2022/04/10 00:12:59;;;;;;;4.85;2.85;;;;;;;1.85;100.00;95953.94;5031980;28;24434;-74
2022/04/10 00:15:25;;;;;;;6.50;2.90;;;;;;;1.89;100.00;95958.13;5031762;28;24419;-74
2022/04/10 00:17:51;;;;;;;5.90;2.90;;;;;;;1.94;100.00;95955.44;5031615;28;24420;-74
2022/04/10 00:20:18;;;;;;;7.43;3.00;;;;;;;1.99;100.00;95952.75;5031634;28;24423;-74
2022/04/10 00:22:47;;;;;;;5.15;2.72;;;;;;;1.98;100.00;95951.91;5031725;28;24485;-74
2022/04/10 00:25:15;;;;;;;3.80;2.60;;;;;;;2.03;100.00;95949.22;5031597;28;24420;-74
2022/04/10 00:27:43;;;;;;;4.05;2.60;;;;;;;2.02;100.00;95948.41;5031608;28;24535;-74
2022/04/10 00:30:11;;;;;;;3.78;2.30;;;;;;;2.02;100.00;95945.00;5031383;28;24411;-74
2022/04/10 00:32:38;;;;;;;3.40;2.22;;;;;;;1.93;100.00;95944.38;5031309;28;24972;-74
2022/04/10 00:35:06;;;;;;;6.13;2.57;;;;;;;1.81;100.00;95948.94;5031462;28;24420;-74
2022/04/10 00:37:32;;;;;;;4.90;2.72;;;;;;;1.58;100.00;95955.47;5031458;28;24462;-75
2022/04/10 00:40:00;;;;;;;9.77;2.55;;;;;;;1.61;100.00;95954.56;5031359;28;24482;-74
2022/04/10 00:42:31;;;;;;;14.82;2.40;;;;;;;1.69;100.00;95953.50;5031144;28;24419;-74
2022/04/10 00:44:58;;;;;;;3.47;2.30;;;;;;;1.79;100.00;95946.44;5031099;28;24431;-74
2022/04/10 00:47:24;;;;;;;4.40;2.40;;;;;;;1.74;100.00;95950.81;5030975;28;24856;-74
2022/04/10 00:49:51;;;;;;;7.00;2.58;;;;;;;1.75;100.00;95951.69;5031282;28;24852;-74
2022/04/10 00:52:19;;;;;;;4.03;2.50;;;;;;;1.78;100.00;95956.69;5030898;28;24570;-74
2022/04/10 00:54:45;;;;;;;5.25;2.38;;;;;;;1.88;100.00;95950.47;5031320;28;24948;-74
2022/04/10 00:57:15;;;;;;;5.07;2.38;;;;;;;1.81;100.00;95947.22;5030855;28;24470;-73
2022/04/10 00:59:41;;;;;;;3.03;2.15;;;;;;;1.84;100.00;95941.22;5030699;28;24431;-74
2022/04/10 01:02:08;;;;;;;4.22;2.30;;;;;;;1.82;100.00;95948.09;5030511;28;25007;-74
2022/04/10 01:04:36;;;;;;;6.40;2.63;;;;;;;1.80;100.00;95949.84;5031022;28;24423;-73
2022/04/10 01:07:04;;;;;;;3.58;2.40;;;;;;;1.83;100.00;95949.78;5030050;28;24483;-74
2022/04/10 01:09:31;;;;;;;4.43;2.30;;;;;;;1.75;100.00;95949.97;5030730;28;24420;-74
2022/04/10 01:11:58;;;;;;;5.43;2.47;;;;;;;1.64;100.00;95952.78;5030218;28;24523;-75
2022/04/10 01:14:26;;;;;;;3.80;2.20;;;;;;;1.70;100.00;95957.72;5030902;28;24449;-74
2022/04/10 01:16:53;;;;;;;3.63;2.25;;;;;;;1.72;100.00;95957.69;5030716;28;24485;-74
2022/04/10 01:19:21;;;;;;;2.95;1.90;;;;;;;1.77;100.00;95953.31;5030719;28;24439;-74
2022/04/10 01:21:50;;;;;;;3.53;2.10;;;;;;;1.75;100.00;95952.50;5030387;28;24411;-74
2022/04/10 01:24:18;;;;;;;3.90;2.38;;;;;;;1.84;100.00;95956.53;5030566;28;24482;-74
2022/04/10 01:26:45;;;;;;;3.90;2.13;;;;;;;1.83;100.00;95957.44;5030275;28;24532;-74
2022/04/10 01:29:13;;;;;;;5.72;2.30;;;;;;;1.86;100.00;95955.63;5030410;28;24964;-74
2022/04/10 01:31:43;;;;;;;4.15;2.60;;;;;;;1.73;100.00;95961.09;5030570;28;24510;-74
2022/04/10 01:34:11;;;;;;;4.97;2.53;;;;;;;1.66;100.00;95956.13;5030328;28;24980;-74
2022/04/10 01:36:39;;;;;;;3.67;2.30;;;;;;;1.69;100.00;95956.03;5030369;28;24428;-74
2022/04/10 01:39:07;;;;;;;3.70;2.42;;;;;;;1.50;100.00;95961.66;5030190;28;24836;-74
2022/04/10 01:41:35;;;;;;;4.53;2.20;;;;;;;1.43;100.00;95961.78;5030229;28;24462;-74
2022/04/10 01:44:04;;;;;;;4.50;2.30;;;;;;;1.48;100.00;95958.28;5030416;28;24419;-74
2022/04/10 01:46:32;;;;;;;3.10;2.28;;;;;;;1.39;100.00;95957.63;5030163;28;24427;-74
2022/04/10 01:48:59;;;;;;;3.55;2.30;;;;;;;1.41;100.00;95958.47;5030192;28;24838;-75
2022/04/10 01:51:27;;;;;;;3.47;2.25;;;;;;;1.15;100.00;95955.66;5029919;28;24482;-73
2022/04/10 01:53:54;;;;;;;6.25;3.08;;;;;;;1.04;100.00;95961.03;5030112;28;24820;-74
2022/04/10 01:56:21;;;;;;;4.32;2.70;;;;;;;1.04;100.00;95955.91;5029766;28;24466;-74
2022/04/10 01:58:52;;;;;;;4.75;2.75;;;;;;;0.95;100.00;95956.94;5027066;28;24443;-74
2022/04/10 02:01:19;;;;;;;4.25;2.42;;;;;;;1.09;100.00;95959.19;5024814;28;24533;-74
2022/04/10 02:03:47;;;;;;;4.50;2.37;;;;;;;1.18;100.00;95958.13;5030181;28;24893;-76
2022/04/10 02:06:14;;;;;;;3.50;2.40;;;;;;;1.27;100.00;95954.56;5021786;28;24517;-76
2022/04/10 02:08:42;;;;;;;4.60;2.85;;;;;;;1.29;100.00;95961.28;5030100;28;25071;-77
2022/04/10 02:11:12;;;;;;;3.88;2.38;;;;;;;1.35;100.00;95957.75;5029966;28;24830;-76
2022/04/10 02:13:39;;;;;;;4.60;2.50;;;;;;;1.27;100.00;95959.66;5030227;28;24531;-77
2022/04/10 02:16:11;;;;;;;6.43;3.08;;;;;;;1.31;100.00;95964.66;5030134;28;25158;-77
2022/04/10 02:18:37;;;;;;;5.82;3.30;;;;;;;1.13;100.00;95962.50;5029038;28;24431;-77
2022/04/10 02:21:04;;;;;;;3.83;2.47;;;;;;;1.00;100.00;95963.66;5026830;28;24528;-77
2022/04/10 02:23:31;;;;;;;4.30;2.80;;;;;;;0.99;100.00;95967.91;5034158;28;24798;-77
2022/04/10 02:25:58;;;;;;;3.50;2.50;;;;;;;1.04;100.00;95958.47;5030238;28;24799;-77
2022/04/10 02:28:24;;;;;;;4.78;2.60;;;;;;;0.99;100.00;95967.09;5029622;28;24455;-77
2022/04/10 02:30:51;;;;;;;8.50;3.20;;;;;;;0.95;100.00;95967.16;5033663;28;24435;-76
2022/04/10 02:33:19;;;;;;;16.73;3.47;;;;;;;0.88;100.00;95968.16;5033639;28;24432;-77
2022/04/10 02:35:46;;;;;;;4.88;3.08;;;;;;;0.82;100.00;95960.66;5031458;28;25007;-77
2022/04/10 02:38:12;;;;;;;6.03;2.95;;;;;;;0.70;100.00;95966.84;5027964;28;24423;-77
2022/04/10 02:40:39;;;;;;;4.38;3.13;;;;;;;0.68;100.00;95965.19;5033650;28;24434;-76
2022/04/10 02:43:05;;;;;;;6.07;3.25;;;;;;;0.69;100.00;95966.88;5033810;28;24420;-77
2022/04/10 02:45:32;;;;;;;5.73;3.27;;;;;;;0.73;100.00;95963.38;5033501;28;24984;-77
2022/04/10 02:47:58;;;;;;;5.97;3.25;;;;;;;0.78;100.00;95969.25;5033366;28;24448;-77
2022/04/10 02:50:26;;;;;;;5.50;3.33;;;;;;;0.79;100.00;95964.97;5033207;28;24435;-77
2022/04/10 02:52:54;;;;;;;7.75;3.63;;;;;;;0.73;100.00;95973.56;5033662;28;24412;-77
2022/04/10 02:55:20;;;;;;;7.93;3.25;;;;;;;0.66;100.00;95974.56;5033551;28;24424;-77
2022/04/10 02:57:47;;;;;;;9.77;3.33;;;;;;;0.67;100.00;95966.09;5033470;28;24439;-77
2022/04/10 03:00:14;;;;;;;6.60;3.45;;;;;;;0.68;100.00;95968.59;5033144;28;24465;-74
2022/04/10 03:02:42;;;;;;;5.95;3.25;;;;;;;0.64;100.00;95961.88;5033349;28;24941;-77
2022/04/10 03:05:08;;;;;;;5.15;3.53;;;;;;;0.65;100.00;95973.75;5033571;28;24793;-77
2022/04/10 03:07:36;;;;;;;4.85;3.67;;;;;;;0.63;100.00;95974.63;5033314;28;24440;-77
2022/04/10 03:10:03;;;;;;;5.00;3.40;;;;;;;0.57;100.00;95974.78;5032927;28;24965;-77
2022/04/10 03:12:30;;;;;;;6.00;3.40;;;;;;;0.59;100.00;95978.13;5033166;28;24415;-77
2022/04/10 03:14:56;;;;;;;8.32;3.72;;;;;;;0.54;100.00;95980.78;5032923;28;24431;-77
2022/04/10 03:17:23;;;;;;;7.05;3.65;;;;;;;0.55;100.00;95976.50;5032919;28;24828;-76
2022/04/10 03:19:50;;;;;;;5.13;3.53;;;;;;;0.58;100.00;95982.38;5024780;28;24483;-76
2022/04/10 03:22:16;;;;;;;6.68;3.55;;;;;;;0.60;100.00;95978.09;5032668;28;24427;-76
2022/04/10 03:24:44;;;;;;;6.43;4.10;;;;;;;0.64;100.00;95977.16;5032835;28;24428;-76
2022/04/10 03:27:10;;;;;;;7.60;3.55;;;;;;;0.60;100.00;95983.22;5032911;28;24473;-76
2022/04/10 03:29:37;;;;;;;5.07;3.42;;;;;;;0.65;100.00;95978.84;5032468;28;24435;-76
2022/04/10 03:32:04;;;;;;;5.45;3.42;;;;;;;0.70;100.00;95983.84;5031970;28;24450;-76
2022/04/10 03:34:30;;;;;;;6.90;3.65;;;;;;;0.74;100.00;95988.00;5032837;28;24431;-76
2022/04/10 03:36:56;;;;;;;4.25;3.38;;;;;;;0.84;100.00;95991.19;5032616;28;24985;-76
2022/04/10 03:39:23;;;;;;;3.78;2.95;;;;;;;0.90;100.00;95999.56;5032608;28;24427;-76
2022/04/10 03:41:52;;;;;;;5.47;3.20;;;;;;;0.89;100.00;96002.13;5032314;28;24467;-76
2022/04/10 03:44:19;;;;;;;3.38;2.85;;;;;;;0.89;100.00;96003.00;5032400;28;24476;-76
2022/04/10 03:46:45;;;;;;;3.72;2.67;;;;;;;0.95;100.00;96007.13;5032508;28;24428;-76
2022/04/10 03:49:11;;;;;;;7.30;3.40;;;;;;;0.75;100.00;96007.53;5032573;28;24451;-76
2022/04/10 03:51:38;;;;;;;6.05;3.08;;;;;;;0.59;100.00;96011.25;5032582;28;24442;-76
2022/04/10 03:54:05;;;;;;;7.45;3.60;;;;;;;0.71;100.00;96008.47;5032393;28;24975;-76
2022/04/10 03:56:31;;;;;;;5.77;3.03;;;;;;;0.64;100.00;96009.47;5032206;28;24893;-76
2022/04/10 03:58:59;;;;;;;5.18;3.60;;;;;;;0.69;100.00;96010.22;5032439;28;24451;-76
2022/04/10 04:01:25;;;;;;;6.35;3.60;;;;;;;0.67;100.00;96017.91;5032025;28;24432;-76
2022/04/10 04:03:52;;;;;;;7.25;3.00;;;;;;;0.80;100.00;96018.47;5032165;28;24957;-76
2022/04/10 04:06:18;;;;;;;6.75;3.03;;;;;;;0.67;100.00;96015.34;5032131;28;24424;-76
2022/04/10 04:08:45;;;;;;;3.97;3.17;;;;;;;0.65;100.00;96011.97;5032087;28;24451;-76
2022/04/10 04:11:11;;;;;;;3.67;3.10;;;;;;;0.70;100.00;96022.06;5031427;28;24458;-76
2022/04/10 04:13:38;;;;;;;4.53;2.75;;;;;;;0.70;100.00;96019.53;5032344;28;24449;-76
2022/04/10 04:16:06;;;;;;;5.72;3.00;;;;;;;0.68;100.00;96021.28;5032002;28;24448;-76
2022/04/10 04:18:33;;;;;;;7.72;3.70;;;;;;;0.68;100.00;96028.94;5032013;28;24423;-76
2022/04/10 04:20:59;;;;;;;4.35;3.10;;;;;;;0.71;100.00;96033.97;5031503;28;24961;-76
2022/04/10 04:23:26;;;;;;;6.85;3.17;;;;;;;0.65;100.00;96044.28;5032302;28;24423;-76
2022/04/10 04:25:53;;;;;;;6.18;3.22;;;;;;;0.69;100.00;96041.63;5031640;28;24816;-76
2022/04/10 04:28:19;;;;;;;6.10;3.55;;;;;;;0.72;100.00;96039.03;5031866;28;24446;-76
2022/04/10 04:30:46;;;;;;;4.03;3.00;;;;;;;0.81;100.00;96045.63;5031480;28;24416;-75
2022/04/10 04:33:16;;;;;;;4.25;3.25;;;;;;;0.87;100.00;96042.13;5031692;28;24853;-77
2022/04/10 04:35:43;;;;;;;4.95;3.10;;;;;;;0.85;100.00;96042.16;5031524;28;24524;-77
2022/04/10 04:38:09;;;;;;;6.07;3.67;;;;;;;0.92;100.00;96047.97;5031450;28;24949;-77
2022/04/10 04:40:36;;;;;;;6.50;3.42;;;;;;;0.89;100.00;96046.34;5031098;28;24794;-77
2022/04/10 04:43:02;;;;;;;10.38;8.15;;;;;;;1.01;100.00;96050.34;5031297;28;24961;-77
2022/04/10 04:45:29;;;;;;;13.68;8.63;;;;;;;1.02;100.00;96053.75;5031489;28;24427;-77
2022/04/10 04:47:56;;;;;;;4.87;4.33;;;;;;;0.97;100.00;96058.94;5031348;28;24476;-77
2022/04/10 04:50:24;;;;;;;4.85;3.88;;;;;;;1.07;100.00;96067.22;5031000;28;24432;-77
2022/04/10 04:52:50;;;;;;;5.00;3.40;;;;;;;1.07;100.00;96060.41;5031134;28;24621;-76
2022/04/10 04:55:17;;;;;;;5.53;3.43;;;;;;;1.16;100.00;96067.03;5031448;28;24427;-76
2022/04/10 04:57:43;;;;;;;4.65;3.15;;;;;;;1.20;100.00;96063.56;5031331;28;24428;-77
2022/04/10 05:00:11;;;;;;;4.30;3.08;;;;;;;1.20;100.00;96069.50;5031115;28;24420;-76
2022/04/10 05:02:38;;;;;;;4.23;2.90;;;;;;;1.18;100.00;96076.31;5031143;28;24420;-77
2022/04/10 05:05:05;;;;;;;5.03;2.90;;;;;;;1.31;100.00;96081.19;5031079;28;24427;-77
2022/04/10 05:07:33;;;;;;;7.23;3.73;;;;;;;1.25;100.00;96082.13;5030813;28;24512;-77
2022/04/10 05:09:59;;;;;;;5.10;3.40;;;;;;;1.33;100.00;96081.97;5031156;28;24450;-77
2022/04/10 05:12:26;;;;;;;5.15;3.10;;;;;;;1.23;100.00;96083.91;5046693;22;24476;-74
2022/04/10 05:14:52;;;;;;;6.75;3.30;;;;;;;1.16;100.00;96093.38;5030998;28;24519;-74
2022/04/10 05:17:19;;;;;;;6.13;3.60;;;;;;;1.11;100.00;96091.78;5031028;28;24482;-74
2022/04/10 05:19:45;;;;;;;5.72;3.40;;;;;;;1.12;100.00;96089.22;5030801;28;24975;-74
2022/04/10 05:22:12;;;;;;;5.40;3.63;;;;;;;1.15;100.00;96096.81;5030367;28;24805;-75
2022/04/10 05:24:39;;;;;;;4.93;3.72;;;;;;;1.19;100.00;96105.25;5031009;28;24424;-74
2022/04/10 05:27:06;;;;;;;4.78;3.65;;;;;;;1.25;100.00;96104.28;5030808;28;24431;-75
2022/04/10 05:29:32;;;;;;;5.45;3.72;;;;;;;1.25;100.00;96106.81;5030719;28;24809;-75
2022/04/10 05:31:59;;;;;;;4.53;3.10;;;;;;;1.20;100.00;96110.31;5030398;28;24969;-75
2022/04/10 05:34:25;;;;;;;7.05;3.80;;;;;;;1.34;100.00;96111.75;5030445;28;24411;-75
2022/04/10 05:36:52;;;;;;;4.68;3.33;;;;;;;1.34;100.00;96119.41;5030636;28;24857;-75
2022/04/10 05:39:18;;;;;;;5.07;2.83;;;;;;;1.43;100.00;96122.59;5030491;28;24474;-74
2022/04/10 05:41:46;;;;;;;4.75;3.30;;;;;;;1.30;100.00;96117.75;5030418;28;24431;-74
2022/04/10 05:44:12;;;;;;;6.37;3.40;;;;;;;1.36;100.00;96118.47;5030565;28;24544;-75
2022/04/10 05:46:39;;;;;;;6.87;3.80;;;;;;;1.49;100.00;96121.63;5030366;28;24423;-75
2022/04/10 05:49:06;;;;;;;4.40;3.00;;;;;;;1.52;100.00;96126.66;5030262;28;24841;-75
2022/04/10 05:51:32;;;;;;;6.15;3.60;;;;;;;1.51;100.00;96131.78;5030376;28;24525;-74
2022/04/10 05:53:59;;;;;;;5.18;3.30;;;;;;;1.61;100.00;96133.28;5030004;28;24428;-74
2022/04/10 05:56:25;;;;;;;4.97;3.65;;;;;;;1.63;100.00;96140.03;5030443;28;24435;-74
2022/04/10 05:58:53;;;;;;;4.93;3.30;;;;;;;1.74;100.00;96137.22;5030523;28;24420;-74
2022/04/10 06:01:20;;;;;;;6.43;3.03;;;;;;;1.76;100.00;96142.31;5030109;28;24789;-74
2022/04/10 06:03:47;;;;;;;5.23;3.00;;;;;;;1.82;100.00;96137.91;5030527;28;25062;-74
2022/04/10 06:06:13;;;;;;;7.25;3.65;;;;;;;1.84;100.00;96142.97;5030542;28;24427;-75
2022/04/10 06:08:39;;;;;;;5.75;3.40;;;;;;;1.88;100.00;96132.66;5030535;28;24494;-75
2022/04/10 06:11:06;;;;;;;6.75;3.35;;;;;;;1.99;100.00;96144.34;5029973;28;24435;-75
2022/04/10 06:13:32;;;;;;;4.97;3.05;;;;;;;2.08;100.00;96150.09;5030329;28;24426;-75
2022/04/10 06:16:00;;;;;;;8.77;3.10;;;;;;;2.18;100.00;96158.34;5030199;28;24452;-75
2022/04/10 06:18:26;;;;;;;4.55;2.97;;;;;;;2.30;100.00;96154.66;5030218;28;24435;-75
2022/04/10 06:20:53;;;;;;;4.28;3.08;;;;;;;2.41;100.00;96157.78;5029900;28;24977;-75
2022/04/10 06:23:21;;;;;;;5.25;3.17;;;;;;;2.38;100.00;96160.44;5030532;28;24436;-75
2022/04/10 06:25:48;;;;;;;5.25;2.97;;;;;;;2.49;100.00;96163.59;5030218;28;24649;-75
2022/04/10 06:28:14;;;;;;;5.68;3.28;;;;;;;2.57;100.00;96164.22;5030020;28;24968;-75
2022/04/10 06:30:43;;;;;;;4.27;2.90;;;;;;;2.67;100.00;96158.00;5029830;28;24489;-75
2022/04/10 06:33:11;;;;;;;6.88;3.05;;;;;;;2.63;100.00;96161.53;5030467;28;24439;-75
2022/04/10 06:35:39;;;;;;;5.00;3.50;;;;;;;2.56;100.00;96161.69;5030464;28;24856;-75
2022/04/10 06:38:05;;;;;;;4.50;2.88;;;;;;;2.67;100.00;96165.69;5030210;28;24527;-75
2022/04/10 06:40:32;;;;;;;4.88;2.80;;;;;;;2.80;100.00;96166.19;5030192;28;24424;-75
2022/04/10 06:42:58;;;;;;;5.28;2.90;;;;;;;2.84;100.00;96170.34;5030304;28;24416;-75
2022/04/10 06:45:25;;;;;;;3.85;3.15;;;;;;;3.04;100.00;96158.72;5029958;28;24546;-75
2022/04/10 06:47:51;;;;;;;5.57;3.53;;;;;;;2.91;100.00;96165.91;5030165;28;24857;-75
2022/04/10 06:50:19;;;;;;;4.47;3.17;;;;;;;3.12;100.00;96165.34;5029876;28;24448;-75
2022/04/10 06:52:45;;;;;;;8.02;3.45;;;;;;;3.19;100.00;96170.28;5030071;28;24427;-75
2022/04/10 06:55:12;;;;;;;4.53;3.45;;;;;;;3.28;100.00;96167.47;5029955;28;25166;-75
2022/04/10 06:57:38;;;;;;;4.32;3.33;;;;;;;3.20;100.00;96170.25;5029873;28;24443;-75
2022/04/10 07:00:06;;;;;;;4.75;2.85;;;;;;;3.31;100.00;96165.69;5029720;28;24431;-75
2022/04/10 07:02:33;;;;;;;6.30;3.20;;;;;;;3.49;100.00;96173.72;5030140;28;24434;-75
2022/04/10 07:05:00;;;;;;;6.75;3.30;;;;;;;3.50;100.00;96165.16;5029925;28;24450;-75
2022/04/10 07:07:27;;;;;;;4.18;3.13;;;;;;;3.50;100.00;96172.84;5033300;28;24416;-75
2022/04/10 07:09:54;;;;;;;4.93;3.42;;;;;;;3.53;100.00;96172.75;5033365;28;24448;-75
2022/04/10 07:12:21;;;;;;;6.30;3.90;;;;;;;3.43;100.00;96173.91;5032737;28;24972;-76
2022/04/10 07:14:47;;;;;;;4.43;2.83;;;;;;;3.45;100.00;96177.22;5033196;28;24431;-76
2022/04/10 07:17:13;;;;;;;5.75;3.00;;;;;;;3.43;100.00;96172.16;5033378;28;24523;-76
2022/04/10 07:19:40;;;;;;;3.67;3.10;;;;;;;3.52;100.00;96181.31;5033221;28;24416;-75
2022/04/10 07:24:52;;;;;;;4.80;3.33;;;;;;;3.38;100.00;96174.03;5033151;28;24419;-75
2022/04/10 07:27:18;;;;;;;4.40;3.40;;;;;;;3.28;100.00;96181.13;5032944;28;24420;-75
2022/04/10 07:29:44;;;;;;;6.85;3.65;;;;;;;3.13;100.00;96177.25;5033292;28;24466;-76
2022/04/10 07:32:11;;;;;;;7.65;3.85;;;;;;;3.06;100.00;96180.03;5033395;28;24470;-75
2022/04/10 07:34:37;;;;;;;5.50;3.50;;;;;;;3.10;100.00;96181.63;5032871;28;24821;-76
2022/04/10 07:37:04;;;;;;;6.47;3.70;;;;;;;3.47;100.00;96181.44;5032922;28;24824;-77
2022/04/10 07:39:31;;;;;;;5.80;3.88;;;;;;;3.81;100.00;96178.72;5032802;28;24416;-75
2022/04/10 07:41:58;;;;;;;4.72;3.20;;;;;;;4.15;100.00;96182.84;5032744;28;24466;-72
2022/04/10 07:44:25;;;;;;;4.85;3.45;;;;;;;4.44;100.00;96188.78;5033115;28;24438;-75
2022/04/10 07:49:35;;;;;;;5.82;3.53;;;;;;;4.81;100.00;96190.97;5033031;28;24502;-75
2022/04/10 07:52:02;;;;;;;10.48;3.40;;;;;;;4.91;100.00;96200.06;5032543;28;24447;-75
2022/04/10 07:54:28;;;;;;;10.73;3.88;;;;;;;5.16;94.09;96194.09;5032706;28;24431;-74
2022/04/10 07:56:55;;;;;;;6.25;3.33;;;;;;;4.84;93.98;96190.88;5032549;28;24416;-75
2022/04/10 07:59:23;;;;;;;6.60;3.65;;;;;;;4.88;92.31;96197.59;5032472;28;24427;-75
2022/04/10 08:01:49;;;;;;;6.05;3.63;;;;;;;4.76;90.62;96193.72;5032122;28;24438;-74
2022/04/10 08:04:16;;;;;;;9.10;3.50;;;;;;;4.93;92.37;96200.00;5032429;28;24825;-75
2022/04/10 08:06:42;;;;;;;4.78;2.95;;;;;;;4.91;92.94;96202.63;5032209;28;24435;-75
2022/04/10 08:09:09;;;;;;;7.00;2.92;;;;;;;4.73;90.10;96206.63;5032263;28;24466;-75
2022/04/10 08:11:36;;;;;;;5.25;3.15;;;;;;;4.73;91.22;96201.50;5031842;28;24481;-75
2022/04/10 08:14:02;;;;;;;6.60;3.20;;;;;;;5.23;90.10;96198.13;5032266;28;24428;-75
2022/04/10 08:16:30;;;;;;;6.15;3.50;;;;;;;5.02;92.71;96207.41;5031730;28;24423;-76
2022/04/10 08:18:57;;;;;;;5.50;3.20;;;;;;;4.90;90.09;96215.53;5031917;28;24424;-76
2022/04/10 08:21:23;;;;;;;4.57;3.20;;;;;;;5.24;88.51;96205.78;5031613;28;24432;-75
2022/04/10 08:23:49;;;;;;;6.32;3.00;;;;;;;5.23;85.34;96205.84;5032226;28;24467;-74
2022/04/10 08:26:16;;;;;;;6.38;2.90;;;;;;;4.71;86.60;96208.44;5032017;28;24431;-74
2022/04/10 08:28:42;;;;;;;7.47;3.35;;;;;;;4.90;88.98;96220.66;5031918;28;24428;-75
2022/04/10 08:31:09;;;;;;;7.70;3.65;;;;;;;4.77;84.03;96223.59;5031821;28;24506;-75
2022/04/10 08:33:36;;;;;;;7.22;3.30;;;;;;;4.87;87.66;96231.84;5031788;28;24420;-75
2022/04/10 08:36:03;;;;;;;5.35;3.13;;;;;;;4.78;84.84;96224.44;5031787;28;24432;-75
2022/04/10 08:38:30;;;;;;;6.63;3.47;;;;;;;4.56;86.08;96225.16;5039667;28;24446;-74
2022/04/10 08:41:00;;;;;;;9.90;3.10;;;;;;;4.66;86.28;96227.41;5051218;28;24978;-75
2022/04/10 08:43:27;;;;;;;8.13;3.53;;;;;;;4.75;86.82;96222.84;5051884;28;24975;-75
2022/04/10 08:45:55;;;;;;;6.75;3.22;;;;;;;4.69;85.45;96227.31;5051370;28;24477;-75
2022/04/10 08:48:24;;;;;;;4.78;3.08;;;;;;;4.67;84.91;96237.59;5051202;28;24954;-75
2022/04/10 08:50:53;;;;;;;7.70;3.47;;;;;;;4.61;84.22;96233.53;5044041;28;24448;-75
2022/04/10 08:53:20;;;;;;;5.85;3.33;;;;;;;4.58;85.65;96233.63;5051237;28;25267;-75
2022/04/10 08:55:47;;;;;;;6.70;3.50;;;;;;;4.50;82.63;96238.16;5043931;28;24431;-74
2022/04/10 08:58:13;;;;;;;5.63;3.00;;;;;;;4.63;82.13;96230.91;5031403;28;24428;-75
2022/04/10 09:00:42;;;;;;;10.68;4.00;;;;;;;4.75;81.66;96233.09;5030850;28;24419;-75
2022/04/10 09:03:08;;;;;;;7.85;3.60;;;;;;;4.68;80.07;96241.03;5031469;28;24416;-75
2022/04/10 09:05:35;;;;;;;9.82;5.15;;;;;;;4.63;81.06;96243.72;5031321;28;24840;-75
2022/04/10 09:08:11;;;;;;;7.20;3.08;;;;;;;4.82;78.76;96242.28;5031276;28;25181;-75
2022/04/10 09:10:58;;;;;;;5.65;3.05;;;;;;;5.50;77.50;96235.69;5030889;28;24438;-75
2022/04/10 09:13:27;;;;;;;5.25;2.85;;;;;;;5.86;77.47;96242.97;5031047;28;24427;-75
2022/04/10 09:16:01;;;;;;;6.03;2.42;;;;;;;6.21;74.54;96240.84;5050660;28;24463;-74
2022/04/10 09:18:27;;;;;;;7.20;3.08;;;;;;;6.52;74.47;96233.59;5043033;28;24492;-75
2022/04/10 09:21:06;;;;;;;5.93;2.30;;;;;;;6.65;71.85;96235.69;5034008;28;24547;-75
2022/04/10 09:23:34;;;;;;;6.63;2.60;;;;;;;6.79;70.03;96233.41;5026262;28;24824;-75
2022/04/10 09:26:01;;;;;;;4.78;2.70;;;;;;;6.75;70.23;96226.72;5032149;28;24505;-75
2022/04/10 09:28:44;;;;;;;5.25;2.80;;;;;;;6.81;69.39;96239.31;5030028;28;24980;-75
2022/04/10 09:31:24;;;;;;;3.95;2.25;;;;;;;5.91;72.23;96235.09;5010737;28;24456;-75
2022/04/10 09:33:52;;;;;;;5.50;3.58;;;;;;;3.97;90.77;96258.56;5011047;28;24435;-75
2022/04/10 09:36:28;;;;;;;5.50;3.65;;;;;;;3.35;100.00;96271.41;5010899;28;24814;-75
2022/04/10 09:38:56;;;;;;;11.70;3.88;;;;;;;3.43;100.00;96286.56;5050181;28;24481;-75
2022/04/10 09:41:23;;;;;;;5.32;4.13;;;;;;;3.33;100.00;96283.38;5043699;28;24440;-75
2022/04/10 09:43:50;;;;;;;6.07;3.70;;;;;;;3.37;100.00;96277.31;5049470;28;24832;-75
2022/04/10 09:46:16;;;;;;;6.30;3.58;;;;;;;3.52;100.00;96278.63;5050420;28;24415;-75
2022/04/10 09:48:43;;;;;;;11.30;4.50;;;;;;;3.56;100.00;96287.88;5050369;28;24419;-74
2022/04/10 09:51:11;;;;;;;6.75;4.15;;;;;;;3.80;100.00;96271.03;5050460;28;24542;-75
2022/04/10 09:53:38;;;;;;;6.63;3.60;;;;;;;3.95;100.00;96268.03;5037423;28;24425;-75
2022/04/10 09:56:07;;;;;;;6.97;3.70;;;;;;;4.11;100.00;96265.84;5050611;28;24952;-75
2022/04/10 09:58:35;;;;;;;7.43;3.45;;;;;;;4.39;100.00;96265.88;5050524;28;24518;-75
2022/04/10 10:01:04;;;;;;;7.13;3.72;;;;;;;4.64;100.00;96270.25;5050133;28;24419;-75
2022/04/10 10:03:33;;;;;;;8.93;3.53;;;;;;;5.08;100.00;96268.81;5050562;28;24453;-74
2022/04/10 10:05:59;;;;;;;6.95;3.53;;;;;;;5.33;100.00;96263.69;5050228;28;24873;-76
2022/04/10 10:08:27;;;;;;;4.85;3.08;;;;;;;5.52;99.44;96259.56;5050248;28;24438;-75
2022/04/10 10:10:56;;;;;;;5.95;3.10;;;;;;;5.70;95.34;96263.22;5049811;28;24459;-75
2022/04/10 10:13:26;;;;;;;3.90;2.90;;;;;;;6.35;96.68;96254.00;5050679;28;24423;-75
2022/04/10 10:15:55;;;;;;;8.45;3.45;;;;;;;6.98;89.70;96249.78;5050085;28;24431;-74
2022/04/10 10:18:24;;;;;;;5.40;3.40;;;;;;;6.98;86.67;96254.94;5050361;28;24719;-75
2022/04/10 10:20:51;;;;;;;8.52;3.20;;;;;;;6.59;81.95;96241.91;5050005;28;24423;-75
2022/04/10 10:23:21;;;;;;;5.60;3.35;;;;;;;7.09;81.25;96253.66;5050160;28;24518;-75
2022/04/10 10:25:58;;;;;;;4.45;3.13;;;;;;;7.24;78.54;96245.28;5050233;28;24427;-75
2022/04/10 10:28:55;;;;;;;7.25;3.65;;;;;;;6.64;74.87;96236.63;5050002;28;24426;-75
2022/04/10 10:31:37;;;;;;;6.80;3.55;;;;;;;6.91;75.72;96226.94;5049822;28;24455;-75
2022/04/10 10:34:06;;;;;;;5.23;3.03;;;;;;;7.11;70.83;96226.94;5050453;28;20758;-75
2022/04/10 10:36:33;;;;;;;4.60;3.00;;;;;;;7.39;67.97;96218.03;5049935;28;20754;-75
2022/04/10 10:39:00;;;;;;;5.03;3.00;;;;;;;7.42;70.97;96218.75;5050213;28;21483;-74
2022/04/10 10:41:37;;;;;;;5.70;3.30;;;;;;;7.14;66.99;96221.66;5053736;28;24450;-76
2022/04/10 10:44:33;;;;;;;5.20;3.03;;;;;;;6.99;68.33;96223.13;5053813;28;24948;-74
2022/04/10 10:47:02;;;;;;;4.28;2.63;;;;;;;6.77;64.97;96218.00;5053495;28;21304;-75
2022/04/10 10:49:30;;;;;;;4.60;2.95;;;;;;;6.84;68.01;96217.78;5053833;28;20757;-75
2022/04/10 10:51:58;;;;;;;5.80;3.37;;;;;;;7.16;68.71;96216.44;5053530;28;24785;-75
2022/04/10 10:54:32;;;;;;;3.97;2.50;;;;;;;6.88;62.03;96224.47;5053841;28;21301;-75
2022/04/10 10:56:58;;;;;;;4.57;2.83;;;;;;;7.28;64.80;96216.75;5053594;28;24415;-74
2022/04/10 10:59:33;;;;;;;5.53;2.70;;;;;;;7.23;61.89;96213.56;5053438;28;24423;-75
2022/04/10 11:02:06;;;;;;;3.63;2.50;;;;;;;7.17;59.92;96228.41;5053578;28;20767;-75
2022/04/10 11:04:39;;;;;;;5.57;2.83;;;;;;;6.98;62.00;96221.47;5053549;28;24423;-75
2022/04/10 11:07:21;;;;;;;8.93;2.88;;;;;;;6.81;64.56;96230.78;5053656;28;24427;-75
2022/04/10 11:09:51;;;;;;;4.40;2.60;;;;;;;6.48;61.25;96215.78;5053439;28;24407;-75
2022/04/10 11:12:22;;;;;;;4.13;2.05;;;;;;;7.27;61.52;96217.66;5053705;28;24442;-75
2022/04/10 11:14:51;;;;;;;3.70;2.10;;;;;;;6.95;57.96;96221.59;5052883;28;24419;-74
2022/04/10 11:17:19;;;;;;;4.38;2.55;;;;;;;6.91;62.04;96230.34;5053091;28;24454;-74
2022/04/10 11:19:48;;;;;;;8.43;2.80;;;;;;;6.79;62.22;96220.53;5053100;28;24423;-74
2022/04/10 11:22:20;;;;;;;6.10;2.50;;;;;;;6.76;63.42;96221.50;5052575;28;24412;-74
2022/04/10 11:24:46;;;;;;;4.35;2.50;;;;;;;6.88;65.14;96225.31;5052645;28;24419;-74
2022/04/10 11:27:14;;;;;;;6.10;2.60;;;;;;;6.99;63.07;96223.13;5053005;28;24434;-75
2022/04/10 11:29:49;;;;;;;4.00;2.30;;;;;;;7.22;63.10;96218.75;5053132;28;24451;-75
2022/04/10 11:32:18;;;;;;;4.47;2.25;;;;;;;7.49;60.09;96224.44;5052509;28;24984;-75
2022/04/10 11:34:45;;;;;;;5.32;2.25;;;;;;;7.07;58.35;96214.25;5052563;28;24411;-75
2022/04/10 11:37:21;;;;;;;6.07;2.20;;;;;;;7.14;59.52;96218.25;5052381;28;24434;-74
2022/04/10 11:39:50;;;;;;;11.32;2.80;;;;;;;6.90;58.85;96215.78;5052694;28;24998;-74
2022/04/10 11:42:16;;;;;;;3.50;2.25;;;;;;;6.98;59.91;96215.47;5052604;28;24439;-75
2022/04/10 11:44:43;;;;;;;4.65;2.75;;;;;;;7.29;60.67;96207.28;5052486;28;24978;-75